sensor_id;sensor_type;location;lat;lon;timestamp;P1;durP1;ratioP1;P2;durP2;ratioP2
14316;SDS011;7242;50.858;6.586;2024-01-07T00:01:19;53.10;;;31.30;;
14316;SDS011;7242;50.858;6.586;2024-01-07T00:04:21;52.73;;;31.50;;
14316;SDS011;7242;50.858;6.586;2024-01-07T00:07:22;52.83;;;31.63;;
14316;SDS011;7242;50.858;6.586;2024-01-07T00:10:23;49.00;;;31.10;;
14316;SDS011;7242;50.858;6.586;2024-01-07T00:13:24;50.87;;;30.43;;
14316;SDS011;7242;50.858;6.586;2024-01-07T00:16:25;49.10;;;31.40;;
14316;SDS011;7242;50.858;6.586;2024-01-07T00:19:26;48.63;;;31.70;;
14316;SDS011;7242;50.858;6.586;2024-01-07T00:22:27;49.57;;;31.03;;
14316;SDS011;7242;50.858;6.586;2024-01-07T00:28:52;49.27;;;30.10;;
14316;SDS011;7242;50.858;6.586;2024-01-07T00:31:54;50.20;;;30.97;;
14316;SDS011;7242;50.858;6.586;2024-01-07T00:34:56;46.50;;;30.60;;
14316;SDS011;7242;50.858;6.586;2024-01-07T00:37:56;49.77;;;30.53;;
14316;SDS011;7242;50.858;6.586;2024-01-07T00:40:58;52.03;;;32.37;;
14316;SDS011;7242;50.858;6.586;2024-01-07T00:43:59;51.73;;;30.53;;
14316;SDS011;7242;50.858;6.586;2024-01-07T00:47:00;47.33;;;30.23;;
14316;SDS011;7242;50.858;6.586;2024-01-07T00:50:01;52.23;;;32.83;;
14316;SDS011;7242;50.858;6.586;2024-01-07T00:53:03;53.47;;;32.20;;
14316;SDS011;7242;50.858;6.586;2024-01-07T00:56:05;51.77;;;31.17;;
14316;SDS011;7242;50.858;6.586;2024-01-07T00:59:06;51.80;;;31.90;;
14316;SDS011;7242;50.858;6.586;2024-01-07T01:02:07;48.77;;;30.60;;
14316;SDS011;7242;50.858;6.586;2024-01-07T01:05:08;53.03;;;32.70;;
14316;SDS011;7242;50.858;6.586;2024-01-07T01:08:10;55.73;;;31.37;;
14316;SDS011;7242;50.858;6.586;2024-01-07T01:11:11;50.23;;;31.80;;
14316;SDS011;7242;50.858;6.586;2024-01-07T01:14:12;50.80;;;31.53;;
14316;SDS011;7242;50.858;6.586;2024-01-07T01:17:13;54.97;;;32.20;;
14316;SDS011;7242;50.858;6.586;2024-01-07T01:20:14;49.80;;;30.87;;
14316;SDS011;7242;50.858;6.586;2024-01-07T01:23:15;56.77;;;32.30;;
14316;SDS011;7242;50.858;6.586;2024-01-07T01:26:16;55.00;;;32.80;;
14316;SDS011;7242;50.858;6.586;2024-01-07T01:29:17;49.30;;;31.40;;
14316;SDS011;7242;50.858;6.586;2024-01-07T01:32:17;54.80;;;32.43;;
14316;SDS011;7242;50.858;6.586;2024-01-07T01:35:18;51.27;;;31.13;;
14316;SDS011;7242;50.858;6.586;2024-01-07T01:38:19;53.50;;;31.67;;
14316;SDS011;7242;50.858;6.586;2024-01-07T01:41:20;54.47;;;32.90;;
14316;SDS011;7242;50.858;6.586;2024-01-07T01:44:21;57.77;;;34.17;;
14316;SDS011;7242;50.858;6.586;2024-01-07T01:47:23;54.33;;;32.77;;
14316;SDS011;7242;50.858;6.586;2024-01-07T01:50:24;55.63;;;33.17;;
14316;SDS011;7242;50.858;6.586;2024-01-07T01:53:25;55.17;;;33.00;;
14316;SDS011;7242;50.858;6.586;2024-01-07T01:56:27;52.67;;;31.40;;
14316;SDS011;7242;50.858;6.586;2024-01-07T01:59:28;56.13;;;32.90;;
14316;SDS011;7242;50.858;6.586;2024-01-07T02:02:30;51.90;;;31.27;;
14316;SDS011;7242;50.858;6.586;2024-01-07T02:05:34;55.43;;;32.27;;
14316;SDS011;7242;50.858;6.586;2024-01-07T02:08:35;54.63;;;32.37;;
14316;SDS011;7242;50.858;6.586;2024-01-07T02:11:36;54.63;;;32.33;;
14316;SDS011;7242;50.858;6.586;2024-01-07T02:14:38;52.43;;;29.73;;
14316;SDS011;7242;50.858;6.586;2024-01-07T02:17:40;49.37;;;30.03;;
14316;SDS011;7242;50.858;6.586;2024-01-07T02:20:41;52.20;;;31.40;;
14316;SDS011;7242;50.858;6.586;2024-01-07T02:23:42;48.37;;;29.07;;
14316;SDS011;7242;50.858;6.586;2024-01-07T02:26:43;52.13;;;30.93;;
14316;SDS011;7242;50.858;6.586;2024-01-07T02:29:44;48.27;;;28.67;;
14316;SDS011;7242;50.858;6.586;2024-01-07T02:32:45;47.63;;;28.83;;
14316;SDS011;7242;50.858;6.586;2024-01-07T02:35:46;50.80;;;29.57;;
14316;SDS011;7242;50.858;6.586;2024-01-07T02:38:47;48.37;;;28.93;;
14316;SDS011;7242;50.858;6.586;2024-01-07T02:41:48;44.87;;;28.40;;
14316;SDS011;7242;50.858;6.586;2024-01-07T02:44:50;44.40;;;28.33;;
14316;SDS011;7242;50.858;6.586;2024-01-07T02:47:51;47.17;;;28.20;;
14316;SDS011;7242;50.858;6.586;2024-01-07T02:50:52;46.53;;;29.43;;
14316;SDS011;7242;50.858;6.586;2024-01-07T02:53:52;44.57;;;27.73;;
14316;SDS011;7242;50.858;6.586;2024-01-07T02:56:53;43.93;;;28.53;;
14316;SDS011;7242;50.858;6.586;2024-01-07T02:59:54;45.17;;;28.47;;
14316;SDS011;7242;50.858;6.586;2024-01-07T03:02:56;44.87;;;27.90;;
14316;SDS011;7242;50.858;6.586;2024-01-07T03:05:57;40.00;;;26.97;;
14316;SDS011;7242;50.858;6.586;2024-01-07T03:08:58;42.50;;;27.10;;
14316;SDS011;7242;50.858;6.586;2024-01-07T03:11:59;38.93;;;25.57;;
14316;SDS011;7242;50.858;6.586;2024-01-07T03:15:00;37.07;;;24.60;;
14316;SDS011;7242;50.858;6.586;2024-01-07T03:18:01;36.47;;;24.43;;
14316;SDS011;7242;50.858;6.586;2024-01-07T03:21:02;34.97;;;24.07;;
14316;SDS011;7242;50.858;6.586;2024-01-07T03:24:03;36.70;;;24.50;;
14316;SDS011;7242;50.858;6.586;2024-01-07T03:27:04;39.03;;;24.73;;
14316;SDS011;7242;50.858;6.586;2024-01-07T03:30:05;34.03;;;23.57;;
14316;SDS011;7242;50.858;6.586;2024-01-07T03:33:06;35.13;;;23.83;;
14316;SDS011;7242;50.858;6.586;2024-01-07T03:36:08;33.17;;;23.03;;
14316;SDS011;7242;50.858;6.586;2024-01-07T03:39:10;32.67;;;24.03;;
14316;SDS011;7242;50.858;6.586;2024-01-07T03:42:11;32.77;;;22.37;;
14316;SDS011;7242;50.858;6.586;2024-01-07T03:45:12;31.73;;;22.67;;
14316;SDS011;7242;50.858;6.586;2024-01-07T03:48:12;34.03;;;22.87;;
14316;SDS011;7242;50.858;6.586;2024-01-07T03:51:14;32.80;;;22.20;;
14316;SDS011;7242;50.858;6.586;2024-01-07T03:54:15;31.83;;;23.60;;
14316;SDS011;7242;50.858;6.586;2024-01-07T03:57:16;31.83;;;22.07;;
14316;SDS011;7242;50.858;6.586;2024-01-07T04:00:17;30.30;;;22.97;;
14316;SDS011;7242;50.858;6.586;2024-01-07T04:03:19;27.97;;;21.87;;
14316;SDS011;7242;50.858;6.586;2024-01-07T04:06:20;26.47;;;20.40;;
14316;SDS011;7242;50.858;6.586;2024-01-07T04:09:21;25.03;;;20.47;;
14316;SDS011;7242;50.858;6.586;2024-01-07T04:12:22;25.60;;;19.93;;
14316;SDS011;7242;50.858;6.586;2024-01-07T04:15:24;27.77;;;21.17;;
14316;SDS011;7242;50.858;6.586;2024-01-07T04:18:25;27.03;;;20.63;;
14316;SDS011;7242;50.858;6.586;2024-01-07T04:21:25;32.63;;;23.43;;
14316;SDS011;7242;50.858;6.586;2024-01-07T04:24:26;28.10;;;21.20;;
14316;SDS011;7242;50.858;6.586;2024-01-07T04:27:28;27.03;;;20.33;;
14316;SDS011;7242;50.858;6.586;2024-01-07T04:30:29;23.70;;;19.00;;
14316;SDS011;7242;50.858;6.586;2024-01-07T04:33:29;23.80;;;18.50;;
14316;SDS011;7242;50.858;6.586;2024-01-07T04:36:30;22.53;;;16.53;;
14316;SDS011;7242;50.858;6.586;2024-01-07T04:39:31;21.83;;;16.63;;
14316;SDS011;7242;50.858;6.586;2024-01-07T04:42:33;22.97;;;17.10;;
14316;SDS011;7242;50.858;6.586;2024-01-07T04:45:34;20.83;;;16.37;;
14316;SDS011;7242;50.858;6.586;2024-01-07T04:48:35;22.40;;;17.20;;
14316;SDS011;7242;50.858;6.586;2024-01-07T04:51:36;24.30;;;18.37;;
14316;SDS011;7242;50.858;6.586;2024-01-07T04:54:37;24.30;;;17.50;;
14316;SDS011;7242;50.858;6.586;2024-01-07T04:57:38;22.93;;;17.43;;
14316;SDS011;7242;50.858;6.586;2024-01-07T05:00:39;25.40;;;18.73;;
14316;SDS011;7242;50.858;6.586;2024-01-07T05:03:40;26.17;;;18.00;;
14316;SDS011;7242;50.858;6.586;2024-01-07T05:06:43;26.67;;;18.70;;
14316;SDS011;7242;50.858;6.586;2024-01-07T05:09:45;25.67;;;18.03;;
14316;SDS011;7242;50.858;6.586;2024-01-07T05:12:46;26.40;;;19.13;;
14316;SDS011;7242;50.858;6.586;2024-01-07T05:15:47;23.90;;;17.77;;
14316;SDS011;7242;50.858;6.586;2024-01-07T05:18:53;24.33;;;17.97;;
14316;SDS011;7242;50.858;6.586;2024-01-07T05:21:54;23.43;;;17.00;;
14316;SDS011;7242;50.858;6.586;2024-01-07T05:24:55;23.80;;;17.33;;
14316;SDS011;7242;50.858;6.586;2024-01-07T05:27:57;23.80;;;17.37;;
14316;SDS011;7242;50.858;6.586;2024-01-07T05:30:58;25.67;;;18.87;;
14316;SDS011;7242;50.858;6.586;2024-01-07T05:33:59;25.43;;;18.63;;
14316;SDS011;7242;50.858;6.586;2024-01-07T05:37:00;27.20;;;18.63;;
14316;SDS011;7242;50.858;6.586;2024-01-07T05:40:01;25.43;;;19.07;;
14316;SDS011;7242;50.858;6.586;2024-01-07T05:43:02;26.00;;;18.73;;
14316;SDS011;7242;50.858;6.586;2024-01-07T05:46:03;25.00;;;18.17;;
14316;SDS011;7242;50.858;6.586;2024-01-07T05:49:04;23.47;;;17.40;;
14316;SDS011;7242;50.858;6.586;2024-01-07T05:52:05;22.83;;;16.93;;
14316;SDS011;7242;50.858;6.586;2024-01-07T05:55:06;22.90;;;17.03;;
14316;SDS011;7242;50.858;6.586;2024-01-07T05:58:08;23.40;;;16.93;;
14316;SDS011;7242;50.858;6.586;2024-01-07T06:01:09;22.63;;;17.40;;
14316;SDS011;7242;50.858;6.586;2024-01-07T06:04:10;23.77;;;16.93;;
14316;SDS011;7242;50.858;6.586;2024-01-07T06:07:12;21.73;;;16.83;;
14316;SDS011;7242;50.858;6.586;2024-01-07T06:10:12;22.43;;;17.67;;
14316;SDS011;7242;50.858;6.586;2024-01-07T06:13:13;21.97;;;18.03;;
14316;SDS011;7242;50.858;6.586;2024-01-07T06:16:15;23.47;;;17.33;;
14316;SDS011;7242;50.858;6.586;2024-01-07T06:19:19;23.07;;;17.63;;
14316;SDS011;7242;50.858;6.586;2024-01-07T06:22:20;23.57;;;17.30;;
14316;SDS011;7242;50.858;6.586;2024-01-07T06:25:21;26.03;;;18.30;;
14316;SDS011;7242;50.858;6.586;2024-01-07T06:28:22;25.80;;;18.47;;
14316;SDS011;7242;50.858;6.586;2024-01-07T06:31:23;25.23;;;18.80;;
14316;SDS011;7242;50.858;6.586;2024-01-07T06:34:24;24.97;;;20.03;;
14316;SDS011;7242;50.858;6.586;2024-01-07T06:37:25;25.47;;;19.70;;
14316;SDS011;7242;50.858;6.586;2024-01-07T06:40:29;25.37;;;19.93;;
14316;SDS011;7242;50.858;6.586;2024-01-07T06:43:30;25.70;;;20.60;;
14316;SDS011;7242;50.858;6.586;2024-01-07T06:46:32;25.03;;;19.57;;
14316;SDS011;7242;50.858;6.586;2024-01-07T06:49:34;27.27;;;20.77;;
14316;SDS011;7242;50.858;6.586;2024-01-07T06:52:36;25.07;;;19.60;;
14316;SDS011;7242;50.858;6.586;2024-01-07T06:55:36;24.47;;;19.47;;
14316;SDS011;7242;50.858;6.586;2024-01-07T06:58:38;26.93;;;20.53;;
14316;SDS011;7242;50.858;6.586;2024-01-07T07:01:39;28.87;;;21.37;;
14316;SDS011;7242;50.858;6.586;2024-01-07T07:04:40;30.17;;;21.87;;
14316;SDS011;7242;50.858;6.586;2024-01-07T07:07:41;29.47;;;21.30;;
14316;SDS011;7242;50.858;6.586;2024-01-07T07:10:42;28.73;;;21.90;;
14316;SDS011;7242;50.858;6.586;2024-01-07T07:13:43;28.47;;;21.50;;
14316;SDS011;7242;50.858;6.586;2024-01-07T07:16:44;27.60;;;21.47;;
14316;SDS011;7242;50.858;6.586;2024-01-07T07:19:46;28.33;;;21.67;;
14316;SDS011;7242;50.858;6.586;2024-01-07T07:22:47;29.57;;;22.43;;
14316;SDS011;7242;50.858;6.586;2024-01-07T07:25:48;30.30;;;23.17;;
14316;SDS011;7242;50.858;6.586;2024-01-07T07:28:49;29.87;;;23.57;;
14316;SDS011;7242;50.858;6.586;2024-01-07T07:31:50;31.53;;;23.83;;
14316;SDS011;7242;50.858;6.586;2024-01-07T07:34:51;33.00;;;24.90;;
14316;SDS011;7242;50.858;6.586;2024-01-07T07:37:52;35.23;;;26.87;;
14316;SDS011;7242;50.858;6.586;2024-01-07T07:40:53;32.97;;;25.67;;
14316;SDS011;7242;50.858;6.586;2024-01-07T07:43:54;34.20;;;26.50;;
14316;SDS011;7242;50.858;6.586;2024-01-07T07:46:55;35.07;;;27.90;;
14316;SDS011;7242;50.858;6.586;2024-01-07T07:49:57;33.37;;;25.63;;
14316;SDS011;7242;50.858;6.586;2024-01-07T07:52:58;30.43;;;23.20;;
14316;SDS011;7242;50.858;6.586;2024-01-07T07:55:59;30.77;;;24.23;;
14316;SDS011;7242;50.858;6.586;2024-01-07T07:59:01;28.50;;;21.77;;
14316;SDS011;7242;50.858;6.586;2024-01-07T08:02:02;28.53;;;22.07;;
14316;SDS011;7242;50.858;6.586;2024-01-07T08:05:03;26.83;;;22.17;;
14316;SDS011;7242;50.858;6.586;2024-01-07T08:08:05;29.77;;;22.70;;
14316;SDS011;7242;50.858;6.586;2024-01-07T08:11:06;33.23;;;24.80;;
14316;SDS011;7242;50.858;6.586;2024-01-07T08:14:09;32.50;;;24.37;;
14316;SDS011;7242;50.858;6.586;2024-01-07T08:17:10;32.17;;;24.30;;
14316;SDS011;7242;50.858;6.586;2024-01-07T08:20:10;27.77;;;22.27;;
14316;SDS011;7242;50.858;6.586;2024-01-07T08:23:12;28.27;;;21.93;;
14316;SDS011;7242;50.858;6.586;2024-01-07T08:26:14;25.60;;;20.07;;
14316;SDS011;7242;50.858;6.586;2024-01-07T08:29:19;24.40;;;19.43;;
14316;SDS011;7242;50.858;6.586;2024-01-07T08:32:20;25.17;;;20.30;;
14316;SDS011;7242;50.858;6.586;2024-01-07T08:35:23;27.90;;;22.20;;
14316;SDS011;7242;50.858;6.586;2024-01-07T08:38:24;26.50;;;21.07;;
14316;SDS011;7242;50.858;6.586;2024-01-07T08:41:25;26.50;;;22.43;;
14316;SDS011;7242;50.858;6.586;2024-01-07T08:44:26;25.00;;;20.60;;
14316;SDS011;7242;50.858;6.586;2024-01-07T08:47:28;28.67;;;22.67;;
14316;SDS011;7242;50.858;6.586;2024-01-07T08:50:29;30.20;;;23.40;;
14316;SDS011;7242;50.858;6.586;2024-01-07T08:53:30;33.80;;;24.40;;
14316;SDS011;7242;50.858;6.586;2024-01-07T08:56:31;30.80;;;23.80;;
14316;SDS011;7242;50.858;6.586;2024-01-07T08:59:32;28.47;;;24.23;;
14316;SDS011;7242;50.858;6.586;2024-01-07T09:02:33;29.93;;;23.77;;
14316;SDS011;7242;50.858;6.586;2024-01-07T09:05:36;29.03;;;23.57;;
14316;SDS011;7242;50.858;6.586;2024-01-07T09:08:37;30.60;;;23.53;;
14316;SDS011;7242;50.858;6.586;2024-01-07T09:11:38;32.07;;;24.13;;
14316;SDS011;7242;50.858;6.586;2024-01-07T09:14:39;32.77;;;25.70;;
14316;SDS011;7242;50.858;6.586;2024-01-07T09:17:40;33.40;;;26.37;;
14316;SDS011;7242;50.858;6.586;2024-01-07T09:20:42;31.60;;;25.37;;
14316;SDS011;7242;50.858;6.586;2024-01-07T09:23:44;31.23;;;23.43;;
14316;SDS011;7242;50.858;6.586;2024-01-07T09:26:45;30.77;;;23.27;;
14316;SDS011;7242;50.858;6.586;2024-01-07T09:29:46;30.20;;;23.20;;
14316;SDS011;7242;50.858;6.586;2024-01-07T09:32:47;33.13;;;24.30;;
14316;SDS011;7242;50.858;6.586;2024-01-07T09:35:48;31.60;;;23.50;;
14316;SDS011;7242;50.858;6.586;2024-01-07T09:38:54;28.60;;;21.33;;
14316;SDS011;7242;50.858;6.586;2024-01-07T09:41:55;28.17;;;21.17;;
14316;SDS011;7242;50.858;6.586;2024-01-07T09:44:56;28.60;;;22.30;;
14316;SDS011;7242;50.858;6.586;2024-01-07T09:48:02;32.67;;;24.60;;
14316;SDS011;7242;50.858;6.586;2024-01-07T09:51:03;31.23;;;23.17;;
14316;SDS011;7242;50.858;6.586;2024-01-07T09:54:07;29.77;;;23.07;;
14316;SDS011;7242;50.858;6.586;2024-01-07T09:57:11;31.70;;;23.63;;
14316;SDS011;7242;50.858;6.586;2024-01-07T10:00:12;30.13;;;22.37;;
14316;SDS011;7242;50.858;6.586;2024-01-07T10:03:14;29.00;;;22.17;;
14316;SDS011;7242;50.858;6.586;2024-01-07T10:06:18;31.50;;;23.07;;
14316;SDS011;7242;50.858;6.586;2024-01-07T10:09:23;29.37;;;22.10;;
14316;SDS011;7242;50.858;6.586;2024-01-07T10:12:26;31.00;;;23.60;;
14316;SDS011;7242;50.858;6.586;2024-01-07T10:15:27;28.90;;;22.40;;
14316;SDS011;7242;50.858;6.586;2024-01-07T10:18:29;26.60;;;20.23;;
14316;SDS011;7242;50.858;6.586;2024-01-07T10:21:31;28.33;;;22.37;;
14316;SDS011;7242;50.858;6.586;2024-01-07T10:24:36;24.87;;;19.97;;
14316;SDS011;7242;50.858;6.586;2024-01-07T10:27:38;25.47;;;20.17;;
14316;SDS011;7242;50.858;6.586;2024-01-07T10:30:40;26.80;;;20.17;;
14316;SDS011;7242;50.858;6.586;2024-01-07T10:33:41;24.97;;;19.83;;
14316;SDS011;7242;50.858;6.586;2024-01-07T10:36:42;27.53;;;21.37;;
14316;SDS011;7242;50.858;6.586;2024-01-07T10:39:45;25.10;;;20.97;;
14316;SDS011;7242;50.858;6.586;2024-01-07T10:42:46;23.37;;;19.53;;
14316;SDS011;7242;50.858;6.586;2024-01-07T10:45:49;20.63;;;17.37;;
14316;SDS011;7242;50.858;6.586;2024-01-07T10:49:02;16.33;;;14.03;;
14316;SDS011;7242;50.858;6.586;2024-01-07T10:52:07;15.97;;;13.40;;
14316;SDS011;7242;50.858;6.586;2024-01-07T10:55:09;15.43;;;11.97;;
14316;SDS011;7242;50.858;6.586;2024-01-07T10:58:11;16.40;;;13.73;;
14316;SDS011;7242;50.858;6.586;2024-01-07T11:01:13;21.13;;;15.60;;
14316;SDS011;7242;50.858;6.586;2024-01-07T11:07:34;13.47;;;12.03;;
14316;SDS011;7242;50.858;6.586;2024-01-07T11:10:45;15.97;;;13.73;;
14316;SDS011;7242;50.858;6.586;2024-01-07T11:13:54;15.90;;;13.40;;
14316;SDS011;7242;50.858;6.586;2024-01-07T11:16:56;16.53;;;14.07;;
14316;SDS011;7242;50.858;6.586;2024-01-07T11:19:59;19.13;;;14.53;;
14316;SDS011;7242;50.858;6.586;2024-01-07T11:23:25;17.73;;;14.80;;
14316;SDS011;7242;50.858;6.586;2024-01-07T11:26:30;17.60;;;15.70;;
14316;SDS011;7242;50.858;6.586;2024-01-07T11:29:32;18.70;;;16.70;;
14316;SDS011;7242;50.858;6.586;2024-01-07T11:32:37;17.30;;;14.73;;
14316;SDS011;7242;50.858;6.586;2024-01-07T11:35:55;18.60;;;15.60;;
14316;SDS011;7242;50.858;6.586;2024-01-07T11:38:57;18.10;;;14.97;;
14316;SDS011;7242;50.858;6.586;2024-01-07T11:41:59;17.63;;;14.80;;
14316;SDS011;7242;50.858;6.586;2024-01-07T11:45:03;19.13;;;15.63;;
14316;SDS011;7242;50.858;6.586;2024-01-07T11:48:05;20.97;;;16.03;;
14316;SDS011;7242;50.858;6.586;2024-01-07T11:51:06;18.23;;;15.17;;
14316;SDS011;7242;50.858;6.586;2024-01-07T11:54:07;17.50;;;15.43;;
14316;SDS011;7242;50.858;6.586;2024-01-07T11:57:08;19.33;;;15.63;;
14316;SDS011;7242;50.858;6.586;2024-01-07T12:00:11;22.30;;;17.30;;
14316;SDS011;7242;50.858;6.586;2024-01-07T12:03:12;22.17;;;17.67;;
14316;SDS011;7242;50.858;6.586;2024-01-07T12:06:15;18.00;;;15.10;;
14316;SDS011;7242;50.858;6.586;2024-01-07T12:09:16;18.47;;;14.40;;
14316;SDS011;7242;50.858;6.586;2024-01-07T12:12:17;16.83;;;13.97;;
14316;SDS011;7242;50.858;6.586;2024-01-07T12:15:19;16.87;;;13.50;;
14316;SDS011;7242;50.858;6.586;2024-01-07T12:18:20;15.43;;;13.63;;
14316;SDS011;7242;50.858;6.586;2024-01-07T12:21:21;15.57;;;13.60;;
14316;SDS011;7242;50.858;6.586;2024-01-07T12:24:24;15.20;;;13.33;;
14316;SDS011;7242;50.858;6.586;2024-01-07T12:27:25;17.10;;;13.63;;
14316;SDS011;7242;50.858;6.586;2024-01-07T12:30:26;16.33;;;14.07;;
14316;SDS011;7242;50.858;6.586;2024-01-07T12:33:27;18.00;;;13.73;;
14316;SDS011;7242;50.858;6.586;2024-01-07T12:36:31;16.40;;;13.63;;
14316;SDS011;7242;50.858;6.586;2024-01-07T12:39:33;14.77;;;13.17;;
14316;SDS011;7242;50.858;6.586;2024-01-07T12:42:35;17.33;;;13.40;;
14316;SDS011;7242;50.858;6.586;2024-01-07T12:45:36;17.50;;;12.80;;
14316;SDS011;7242;50.858;6.586;2024-01-07T12:48:37;15.20;;;12.47;;
14316;SDS011;7242;50.858;6.586;2024-01-07T12:51:38;13.70;;;11.50;;
14316;SDS011;7242;50.858;6.586;2024-01-07T12:54:39;12.53;;;10.70;;
14316;SDS011;7242;50.858;6.586;2024-01-07T12:57:40;15.20;;;11.53;;
14316;SDS011;7242;50.858;6.586;2024-01-07T13:00:41;13.53;;;11.10;;
14316;SDS011;7242;50.858;6.586;2024-01-07T13:03:42;13.87;;;10.97;;
14316;SDS011;7242;50.858;6.586;2024-01-07T13:06:44;14.57;;;10.07;;
14316;SDS011;7242;50.858;6.586;2024-01-07T13:09:44;15.30;;;12.77;;
14316;SDS011;7242;50.858;6.586;2024-01-07T13:12:45;15.03;;;11.73;;
14316;SDS011;7242;50.858;6.586;2024-01-07T13:15:46;13.90;;;10.77;;
14316;SDS011;7242;50.858;6.586;2024-01-07T13:18:47;13.93;;;10.30;;
14316;SDS011;7242;50.858;6.586;2024-01-07T13:21:48;12.40;;;9.70;;
14316;SDS011;7242;50.858;6.586;2024-01-07T13:24:49;16.20;;;10.30;;
14316;SDS011;7242;50.858;6.586;2024-01-07T13:27:50;14.03;;;10.63;;
14316;SDS011;7242;50.858;6.586;2024-01-07T13:30:52;14.10;;;10.07;;
14316;SDS011;7242;50.858;6.586;2024-01-07T13:33:54;11.80;;;9.77;;
14316;SDS011;7242;50.858;6.586;2024-01-07T13:36:56;10.77;;;9.00;;
14316;SDS011;7242;50.858;6.586;2024-01-07T13:39:57;11.10;;;8.80;;
14316;SDS011;7242;50.858;6.586;2024-01-07T13:42:58;12.43;;;9.30;;
14316;SDS011;7242;50.858;6.586;2024-01-07T13:45:59;9.87;;;8.10;;
14316;SDS011;7242;50.858;6.586;2024-01-07T13:49:02;12.57;;;8.77;;
14316;SDS011;7242;50.858;6.586;2024-01-07T13:52:04;11.50;;;8.77;;
14316;SDS011;7242;50.858;6.586;2024-01-07T13:55:05;11.87;;;8.37;;
14316;SDS011;7242;50.858;6.586;2024-01-07T13:58:07;11.07;;;8.47;;
14316;SDS011;7242;50.858;6.586;2024-01-07T14:01:08;10.43;;;7.80;;
14316;SDS011;7242;50.858;6.586;2024-01-07T14:04:09;8.90;;;7.20;;
14316;SDS011;7242;50.858;6.586;2024-01-07T14:07:10;8.17;;;7.17;;
14316;SDS011;7242;50.858;6.586;2024-01-07T14:10:11;9.17;;;8.03;;
14316;SDS011;7242;50.858;6.586;2024-01-07T14:13:12;9.33;;;7.40;;
14316;SDS011;7242;50.858;6.586;2024-01-07T14:16:13;8.73;;;7.53;;
14316;SDS011;7242;50.858;6.586;2024-01-07T14:19:14;9.40;;;7.97;;
14316;SDS011;7242;50.858;6.586;2024-01-07T14:22:16;11.50;;;9.40;;
14316;SDS011;7242;50.858;6.586;2024-01-07T14:25:18;10.13;;;8.20;;
14316;SDS011;7242;50.858;6.586;2024-01-07T14:28:19;9.07;;;8.13;;
14316;SDS011;7242;50.858;6.586;2024-01-07T14:31:20;10.07;;;7.87;;
14316;SDS011;7242;50.858;6.586;2024-01-07T14:34:21;9.87;;;8.10;;
14316;SDS011;7242;50.858;6.586;2024-01-07T14:37:23;8.53;;;7.03;;
14316;SDS011;7242;50.858;6.586;2024-01-07T14:40:24;9.07;;;7.70;;
14316;SDS011;7242;50.858;6.586;2024-01-07T14:43:25;8.03;;;6.97;;
14316;SDS011;7242;50.858;6.586;2024-01-07T14:46:26;7.67;;;6.90;;
14316;SDS011;7242;50.858;6.586;2024-01-07T14:49:27;7.60;;;6.50;;
14316;SDS011;7242;50.858;6.586;2024-01-07T14:52:29;7.73;;;6.60;;
14316;SDS011;7242;50.858;6.586;2024-01-07T14:55:29;7.83;;;6.47;;
14316;SDS011;7242;50.858;6.586;2024-01-07T14:58:31;8.27;;;6.63;;
14316;SDS011;7242;50.858;6.586;2024-01-07T15:01:32;8.30;;;6.90;;
14316;SDS011;7242;50.858;6.586;2024-01-07T15:04:33;8.10;;;7.27;;
14316;SDS011;7242;50.858;6.586;2024-01-07T15:07:34;8.90;;;7.90;;
14316;SDS011;7242;50.858;6.586;2024-01-07T15:10:35;8.47;;;6.70;;
14316;SDS011;7242;50.858;6.586;2024-01-07T15:13:36;7.87;;;7.07;;
14316;SDS011;7242;50.858;6.586;2024-01-07T15:16:38;7.07;;;6.33;;
14316;SDS011;7242;50.858;6.586;2024-01-07T15:19:39;7.10;;;6.30;;
14316;SDS011;7242;50.858;6.586;2024-01-07T15:22:40;7.00;;;6.03;;
14316;SDS011;7242;50.858;6.586;2024-01-07T15:25:41;6.47;;;5.87;;
14316;SDS011;7242;50.858;6.586;2024-01-07T15:28:42;6.80;;;6.17;;
14316;SDS011;7242;50.858;6.586;2024-01-07T15:31:44;7.10;;;6.37;;
14316;SDS011;7242;50.858;6.586;2024-01-07T15:34:44;7.13;;;6.43;;
14316;SDS011;7242;50.858;6.586;2024-01-07T15:37:45;6.60;;;5.93;;
14316;SDS011;7242;50.858;6.586;2024-01-07T15:40:46;6.10;;;5.50;;
14316;SDS011;7242;50.858;6.586;2024-01-07T15:43:47;6.70;;;5.47;;
14316;SDS011;7242;50.858;6.586;2024-01-07T15:46:49;5.43;;;4.93;;
14316;SDS011;7242;50.858;6.586;2024-01-07T15:49:50;5.50;;;4.90;;
14316;SDS011;7242;50.858;6.586;2024-01-07T15:52:51;6.37;;;4.47;;
14316;SDS011;7242;50.858;6.586;2024-01-07T15:55:52;5.30;;;4.80;;
14316;SDS011;7242;50.858;6.586;2024-01-07T15:58:53;5.73;;;4.60;;
14316;SDS011;7242;50.858;6.586;2024-01-07T16:01:54;4.80;;;4.27;;
14316;SDS011;7242;50.858;6.586;2024-01-07T16:04:56;4.73;;;4.20;;
14316;SDS011;7242;50.858;6.586;2024-01-07T16:07:57;5.00;;;4.50;;
14316;SDS011;7242;50.858;6.586;2024-01-07T16:10:58;4.77;;;4.30;;
14316;SDS011;7242;50.858;6.586;2024-01-07T16:13:59;4.70;;;4.30;;
14316;SDS011;7242;50.858;6.586;2024-01-07T16:17:01;5.50;;;4.27;;
14316;SDS011;7242;50.858;6.586;2024-01-07T16:20:01;4.43;;;4.03;;
14316;SDS011;7242;50.858;6.586;2024-01-07T16:23:03;4.90;;;3.73;;
14316;SDS011;7242;50.858;6.586;2024-01-07T16:26:04;5.03;;;4.10;;
14316;SDS011;7242;50.858;6.586;2024-01-07T16:29:06;6.47;;;3.97;;
14316;SDS011;7242;50.858;6.586;2024-01-07T16:32:09;4.27;;;3.30;;
14316;SDS011;7242;50.858;6.586;2024-01-07T16:35:10;3.63;;;3.33;;
14316;SDS011;7242;50.858;6.586;2024-01-07T16:38:11;3.50;;;3.20;;
14316;SDS011;7242;50.858;6.586;2024-01-07T16:41:12;3.67;;;3.20;;
14316;SDS011;7242;50.858;6.586;2024-01-07T16:44:13;3.70;;;3.23;;
14316;SDS011;7242;50.858;6.586;2024-01-07T16:47:15;3.60;;;3.10;;
14316;SDS011;7242;50.858;6.586;2024-01-07T16:50:18;3.17;;;2.87;;
14316;SDS011;7242;50.858;6.586;2024-01-07T16:53:19;3.53;;;3.20;;
14316;SDS011;7242;50.858;6.586;2024-01-07T16:56:21;4.03;;;3.20;;
14316;SDS011;7242;50.858;6.586;2024-01-07T16:59:22;3.73;;;3.10;;
14316;SDS011;7242;50.858;6.586;2024-01-07T17:02:24;3.90;;;3.00;;
14316;SDS011;7242;50.858;6.586;2024-01-07T17:05:26;4.03;;;3.53;;
14316;SDS011;7242;50.858;6.586;2024-01-07T17:08:26;3.77;;;3.37;;
14316;SDS011;7242;50.858;6.586;2024-01-07T17:11:27;4.97;;;3.67;;
14316;SDS011;7242;50.858;6.586;2024-01-07T17:14:29;3.47;;;3.17;;
14316;SDS011;7242;50.858;6.586;2024-01-07T17:17:30;3.90;;;3.50;;
14316;SDS011;7242;50.858;6.586;2024-01-07T17:20:31;3.70;;;3.40;;
14316;SDS011;7242;50.858;6.586;2024-01-07T17:23:35;4.13;;;3.70;;
14316;SDS011;7242;50.858;6.586;2024-01-07T17:26:36;3.93;;;3.53;;
14316;SDS011;7242;50.858;6.586;2024-01-07T17:29:38;3.67;;;3.37;;
14316;SDS011;7242;50.858;6.586;2024-01-07T17:32:39;3.43;;;3.13;;
14316;SDS011;7242;50.858;6.586;2024-01-07T17:35:40;4.60;;;3.50;;
14316;SDS011;7242;50.858;6.586;2024-01-07T17:38:42;3.70;;;3.33;;
14316;SDS011;7242;50.858;6.586;2024-01-07T17:41:43;4.67;;;3.37;;
14316;SDS011;7242;50.858;6.586;2024-01-07T17:44:44;4.40;;;3.90;;
14316;SDS011;7242;50.858;6.586;2024-01-07T17:47:47;4.50;;;4.10;;
14316;SDS011;7242;50.858;6.586;2024-01-07T17:50:50;3.67;;;3.30;;
14316;SDS011;7242;50.858;6.586;2024-01-07T17:53:51;3.40;;;2.97;;
14316;SDS011;7242;50.858;6.586;2024-01-07T17:56:53;3.53;;;3.10;;
14316;SDS011;7242;50.858;6.586;2024-01-07T17:59:54;3.73;;;3.33;;
14316;SDS011;7242;50.858;6.586;2024-01-07T18:02:56;4.00;;;3.50;;
14316;SDS011;7242;50.858;6.586;2024-01-07T18:05:57;3.87;;;3.37;;
14316;SDS011;7242;50.858;6.586;2024-01-07T18:09:00;4.13;;;3.40;;
14316;SDS011;7242;50.858;6.586;2024-01-07T18:12:02;3.57;;;3.27;;